createdAt,value
2016-11-02T00:00:32.301Z,23
2016-11-02T00:05:37.396Z,23
2016-11-02T00:10:41.492Z,23
2016-11-02T00:15:45.933Z,22.9
2016-11-02T00:20:50.026Z,22.9
2016-11-02T00:25:54.455Z,22.9
2016-11-02T00:30:58.554Z,22.9
2016-11-02T00:36:02.982Z,22.9
2016-11-02T00:41:07.079Z,22.9
2016-11-02T00:46:11.174Z,22.9
2016-11-02T00:51:15.270Z,22.9
2016-11-02T00:56:19.366Z,22.8
2016-11-02T01:01:23.456Z,22.8
2016-11-02T01:06:27.557Z,22.8
2016-11-02T01:11:31.648Z,22.8
2016-11-02T01:16:35.741Z,22.8
2016-11-02T01:21:39.835Z,22.8
2016-11-02T01:26:43.937Z,22.8
2016-11-02T01:31:48.368Z,22.8
2016-11-02T01:36:52.800Z,22.8
2016-11-02T01:41:56.902Z,22.7
2016-11-02T01:47:01.010Z,22.7
2016-11-02T01:52:05.104Z,22.7
2016-11-02T01:57:09.191Z,22.7
2016-11-02T02:02:13.953Z,22.7
2016-11-02T02:07:18.379Z,22.7
2016-11-02T02:12:22.470Z,22.7
2016-11-02T02:17:26.571Z,22.6
2016-11-02T02:22:30.661Z,22.7
2016-11-02T02:27:34.761Z,22.6
2016-11-02T02:32:39.185Z,22.6
2016-11-02T02:37:43.612Z,22.6
2016-11-02T02:42:47.723Z,22.6
2016-11-02T02:47:52.148Z,22.6
2016-11-02T02:52:56.237Z,22.6
2016-11-02T02:58:00.326Z,22.6
2016-11-02T03:03:04.755Z,22.5
2016-11-02T03:08:08.847Z,22.5
2016-11-02T03:13:12.942Z,22.5
2016-11-02T03:18:17.037Z,22.5
2016-11-02T03:23:21.464Z,22.5
2016-11-02T03:28:25.556Z,22.5
2016-11-02T03:33:29.985Z,22.5
2016-11-02T03:38:34.414Z,22.5
2016-11-02T03:43:38.844Z,22.5
2016-11-02T03:48:43.608Z,22.5
2016-11-02T03:53:47.697Z,22.5
2016-11-02T03:58:52.132Z,22.5
2016-11-02T04:03:56.226Z,22.4
2016-11-02T04:09:00.323Z,22.4
2016-11-02T04:14:05.089Z,22.4
2016-11-02T04:19:09.180Z,22.4
2016-11-02T04:24:13.275Z,22.4
2016-11-02T04:29:17.372Z,22.4
2016-11-02T04:34:21.796Z,22.4
2016-11-02T04:39:26.558Z,22.4
2016-11-02T04:44:30.655Z,22.4
2016-11-02T04:49:35.084Z,22.4
2016-11-02T04:54:39.179Z,22.4
2016-11-02T04:59:43.615Z,22.4
2016-11-02T05:04:48.050Z,22.4
2016-11-02T05:09:52.827Z,22.4
2016-11-02T05:14:56.931Z,22.4
2016-11-02T05:20:01.247Z,22.4
2016-11-02T05:25:05.350Z,22.4
2016-11-02T05:30:09.444Z,22.4
2016-11-02T05:35:13.880Z,22.4
2016-11-02T05:40:17.977Z,22.4
2016-11-02T05:45:22.078Z,22.4
2016-11-02T05:50:26.168Z,22.4
2016-11-02T05:55:30.596Z,22.4
2016-11-02T06:00:35.074Z,22.4
2016-11-02T06:05:39.186Z,22.5
2016-11-02T06:10:43.611Z,22.5
2016-11-02T06:15:48.393Z,22.5
2016-11-02T06:20:52.490Z,22.6
2016-11-02T06:25:56.919Z,22.6
2016-11-02T06:31:01.364Z,22.6
2016-11-02T06:36:05.448Z,22.6
2016-11-02T06:41:10.205Z,22.6
2016-11-02T06:46:14.307Z,22.6
2016-11-02T06:51:18.743Z,22.6
2016-11-02T06:56:22.839Z,22.6
2016-11-02T07:01:27.263Z,22.6
2016-11-02T07:06:31.691Z,22.5
2016-11-02T07:11:35.794Z,22.5
2016-11-02T07:16:40.222Z,22.5
2016-11-02T07:21:44.653Z,22.6
2016-11-02T07:26:48.759Z,22.5
2016-11-02T07:31:52.851Z,22.5
2016-11-02T07:36:56.946Z,22.5
2016-11-02T07:42:01.381Z,22.5
2016-11-02T07:47:05.481Z,22.5
2016-11-02T07:52:09.908Z,22.5
2016-11-02T07:57:13.998Z,22.5
2016-11-02T08:02:18.093Z,22.5
2016-11-02T08:07:22.519Z,22.5
2016-11-02T08:12:26.629Z,22.5
2016-11-02T08:17:31.060Z,22.5
2016-11-02T08:22:35.826Z,22.4
2016-11-02T08:27:40.261Z,22.5
2016-11-02T08:32:44.361Z,22.5
2016-11-02T08:37:49.468Z,22.5
2016-11-02T08:42:54.237Z,22.5
2016-11-02T08:47:58.666Z,22.5
2016-11-02T08:53:02.756Z,22.5
2016-11-02T08:58:06.858Z,22.5
2016-11-02T09:03:11.293Z,22.5
2016-11-02T09:08:15.386Z,22.5
2016-11-02T09:13:20.146Z,22.5
2016-11-02T09:18:24.575Z,22.5
2016-11-02T09:23:28.671Z,22.6
2016-11-02T09:28:32.772Z,22.7
2016-11-02T09:33:37.207Z,22.7
2016-11-02T09:38:41.641Z,22.7
2016-11-02T09:43:45.737Z,22.8
2016-11-02T09:48:49.835Z,22.8
2016-11-02T09:53:53.929Z,22.8
2016-11-02T09:58:58.025Z,22.7
2016-11-02T10:04:02.125Z,22.7
2016-11-02T10:09:06.221Z,22.7
2016-11-02T10:14:10.649Z,22.6
2016-11-02T10:19:14.748Z,22.6
2016-11-02T10:24:18.849Z,22.7
2016-11-02T10:29:22.947Z,22.8
2016-11-02T10:34:27.038Z,22.8
2016-11-02T10:39:31.131Z,22.8
2016-11-02T10:44:36.227Z,22.7
2016-11-02T10:49:40.995Z,22.8
2016-11-02T10:54:45.426Z,22.7
2016-11-02T10:59:49.652Z,22.7
2016-11-02T11:04:54.090Z,22.7
2016-11-02T11:09:58.514Z,22.7
2016-11-02T11:15:02.612Z,22.7
2016-11-02T11:20:06.717Z,22.8
2016-11-02T11:25:11.150Z,22.8
2016-11-02T11:30:15.582Z,22.9
2016-11-02T11:35:20.345Z,23
2016-11-02T11:40:24.442Z,23
2016-11-02T11:45:29.544Z,23
2016-11-02T11:50:33.982Z,23.1
2016-11-02T11:55:38.082Z,23.1
2016-11-02T12:00:42.524Z,23.1
2016-11-02T12:05:47.444Z,23.1
2016-11-02T12:10:51.531Z,23.1
2016-11-02T12:15:55.636Z,23.1
2016-11-02T12:20:59.726Z,23.2
2016-11-02T12:26:04.164Z,23.1
2016-11-02T12:31:08.267Z,23.1
2016-11-02T12:36:12.695Z,23.1
2016-11-02T12:41:16.797Z,23
2016-11-02T12:46:21.569Z,23
2016-11-02T12:51:25.668Z,23
2016-11-02T12:56:29.761Z,22.9
2016-11-02T13:01:33.876Z,22.9
2016-11-02T13:06:38.653Z,22.9
2016-11-02T13:11:42.752Z,23
2016-11-02T13:16:47.208Z,23
2016-11-02T13:21:51.998Z,23
2016-11-02T13:26:56.111Z,23
2016-11-02T13:32:01.214Z,23.1
2016-11-02T13:37:05.977Z,23.1
2016-11-02T13:42:10.140Z,23
2016-11-02T13:47:14.401Z,23.1
2016-11-02T13:52:18.525Z,23.1
2016-11-02T13:57:22.967Z,23.1
2016-11-02T14:02:28.092Z,23
2016-11-02T14:07:32.529Z,23
2016-11-02T14:12:37.287Z,23
2016-11-02T14:17:41.391Z,23
2016-11-02T14:22:45.865Z,23
2016-11-02T14:27:50.297Z,22.9
2016-11-02T14:32:54.812Z,22.9
2016-11-02T14:37:58.965Z,22.9
2016-11-02T14:43:03.066Z,22.8
2016-11-02T14:48:07.161Z,22.8
2016-11-02T14:53:11.261Z,22.8
2016-11-02T14:58:15.363Z,22.8
2016-11-02T15:03:19.482Z,22.8
2016-11-02T15:08:23.912Z,22.8
2016-11-02T15:13:28.096Z,22.7
2016-11-02T15:18:32.278Z,22.7
2016-11-02T15:23:36.711Z,22.8
2016-11-02T15:28:41.502Z,22.8
2016-11-02T15:33:46.256Z,22.8
2016-11-02T15:38:50.387Z,22.8
2016-11-02T15:43:54.717Z,22.8
2016-11-02T15:48:58.810Z,22.8
2016-11-02T15:54:02.927Z,22.8
2016-11-02T15:59:07.353Z,22.8
2016-11-02T16:04:11.782Z,22.8
2016-11-02T16:09:16.211Z,22.8
2016-11-02T16:14:20.663Z,22.8
2016-11-02T16:19:24.796Z,22.8
2016-11-02T16:24:28.885Z,22.8
2016-11-02T16:29:32.976Z,22.8
2016-11-02T16:34:37.273Z,22.8
2016-11-02T16:39:41.379Z,22.8
2016-11-02T16:44:45.489Z,22.8
2016-11-02T16:49:49.914Z,22.7
2016-11-02T16:54:54.353Z,22.7
2016-11-02T16:59:58.467Z,22.7
2016-11-02T17:05:02.937Z,22.7
2016-11-02T17:10:07.040Z,22.7
2016-11-02T17:15:11.147Z,22.7
2016-11-02T17:20:15.476Z,22.7
2016-11-02T17:25:19.586Z,22.7
2016-11-02T17:30:23.679Z,22.7
2016-11-02T17:35:28.108Z,22.7
2016-11-02T17:40:32.201Z,22.7
2016-11-02T17:45:36.640Z,22.6
2016-11-02T17:50:41.167Z,22.6
2016-11-02T17:55:45.723Z,22.7
2016-11-02T18:00:49.814Z,22.7
2016-11-02T18:05:54.240Z,22.7
2016-11-02T18:10:58.668Z,22.7
2016-11-02T18:16:03.763Z,22.7
2016-11-02T18:21:08.196Z,22.7
2016-11-02T18:26:12.291Z,22.7
2016-11-02T18:31:16.716Z,22.7
2016-11-02T18:36:20.804Z,22.7
2016-11-02T18:41:24.895Z,22.7
2016-11-02T18:46:29.321Z,22.7
2016-11-02T18:51:33.412Z,22.8
2016-11-02T18:56:37.847Z,22.8
2016-11-02T19:01:41.938Z,22.8
2016-11-02T19:06:46.034Z,22.8
2016-11-02T19:11:50.468Z,22.8
2016-11-02T19:16:54.908Z,22.8
2016-11-02T19:21:59.016Z,22.8
2016-11-02T19:27:03.439Z,22.8
2016-11-02T19:32:08.205Z,22.8
2016-11-02T19:37:12.638Z,22.7
2016-11-02T19:42:16.736Z,22.7
2016-11-02T19:47:20.831Z,22.7
2016-11-02T19:52:25.266Z,22.7
2016-11-02T19:57:30.037Z,22.7
2016-11-02T20:02:34.133Z,22.7
2016-11-02T20:07:38.220Z,22.7
2016-11-02T20:12:42.583Z,22.7
2016-11-02T20:17:46.680Z,22.6
2016-11-02T20:22:51.120Z,22.5
2016-11-02T20:27:55.218Z,22.5
2016-11-02T20:32:59.643Z,22.5
2016-11-02T20:38:04.075Z,22.5
2016-11-02T20:43:08.165Z,22.4
2016-11-02T20:48:12.924Z,22.4
2016-11-02T20:53:17.684Z,22.4
2016-11-02T20:58:22.091Z,22.4
2016-11-02T21:03:26.192Z,22.4
2016-11-02T21:08:30.286Z,22.4
2016-11-02T21:13:34.378Z,22.4
2016-11-02T21:18:39.212Z,22.5
2016-11-02T21:23:43.306Z,22.5
2016-11-02T21:28:47.751Z,22.5
2016-11-02T21:33:51.852Z,22.5
2016-11-02T21:38:56.298Z,22.5
2016-11-02T21:44:00.725Z,22.5
2016-11-02T21:49:05.162Z,22.5
2016-11-02T21:54:10.255Z,22.5
2016-11-02T21:59:14.349Z,22.5
2016-11-02T22:04:19.254Z,22.4
2016-11-02T22:09:23.385Z,22.4
2016-11-02T22:14:28.145Z,22.4
2016-11-02T22:19:32.245Z,22.4
2016-11-02T22:24:36.679Z,22.3
2016-11-02T22:29:41.111Z,22.3
2016-11-02T22:34:46.197Z,22.2
2016-11-02T22:39:50.633Z,22.2
2016-11-02T22:44:55.402Z,22.2
2016-11-02T22:49:59.835Z,22.2
2016-11-02T22:55:03.932Z,22.1
2016-11-02T23:00:08.026Z,22.1
2016-11-02T23:05:12.456Z,22.1
2016-11-02T23:10:16.888Z,22.1
2016-11-02T23:15:20.980Z,22
2016-11-02T23:20:25.074Z,22
2016-11-02T23:25:29.836Z,22
2016-11-02T23:30:34.264Z,22
2016-11-02T23:35:38.699Z,22
2016-11-02T23:40:42.787Z,21.9
2016-11-02T23:45:47.208Z,21.9
2016-11-02T23:50:51.306Z,21.9
2016-11-02T23:55:55.394Z,21.9
